Overview Statistics Trail Chart Weather Telemetry Raw packets
 

This is the latest recevied weather packets stored in our database for station/object IW1RCO-13. If no packets are shown the sender has not sent any weather packets the latest 10 day(s).

<< 50 51 52 53 54 55 56 >>
Time Temp. Humidity Pressure Rain* Wind** Luminosity Snow
1788262767 27.22° C 68% 1017.6 hPa - - - -
1788262469 26.67° C 71% 1017.1 hPa - - - -
1788262166 24.44° C 76% 1017.7 hPa - - - -
1788261869 25° C 75% 1017.7 hPa - - - -
1788261566 25° C 72% 1017.5 hPa - - - -
1788261269 25° C 72% 1016.1 hPa - - - -
1788260972 26.11° C 68% 1016.8 hPa - - - -
1788259171 25° C 69% 1018 hPa - - - -
1788258868 25.56° C 65% 1017.1 hPa - - - -
1788258571 25.56° C 65% 1017.1 hPa - - - -
1788258268 25.56° C 66% 1016.7 hPa - - - -
1788257971 25° C 65% 1017.8 hPa - - - -
1788257667 25.56° C 65% 1017.3 hPa - - - -
1788257371 25.56° C 66% 1017.7 hPa - - - -
1788257067 26.11° C 65% 1018.3 hPa - - - -
1788256770 28.33° C 57% 1017.5 hPa - - - -
1788256467 28.89° C 57% 1016.9 hPa - - - -
1788256170 27.78° C 61% 1016.8 hPa - - - -
1788255866 26.11° C 64% 1016.5 hPa - - - -
1788255570 26.67° C 62% 1017.9 hPa - - - -
1788255266 25.56° C 67% 1017.5 hPa - - - -
1788254969 25.56° C 67% 1016.6 hPa - - - -
1788254666 26.11° C 65% 1017.5 hPa - - - -
1788254369 26.11° C 67% 1017.2 hPa - - - -
1788253769 26.11° C 65% 1018.1 hPa - - - -

* Rain since midnight (hover to see other rain measurements)
** Current wind speed in m/s (hover to see current wind gust speed)